Wladikavkaz, Russia
Current Conditions -  °F | °C
As of 1:00 PM on Sunday 23 Nov 2014 (Local Time) from URMN Reporting Station
Moderate Fog Moderate Fog  
Wind Chill: 21°   Ceiling: 100
Heat Index: 27°   Visibility: 0.18mi
Dew Point: 27°   Wind: 4mph
Humidity: 100%   Direction: 40°NE
Pressure: 30.15"   Gusts: NA
Location:  43.05°N, 44.65°E
Report Text: URMN 231000Z 04002MPS 0300 FZFG VV001 M03/M03 Q1021 NOSIG RMKQBB050 MT OBSC OBST OBSC QFE729 SC055
Loading
Personal Weather Stations






























Interactive Weather Map New forecast layout! Learn more

10-Day Weather Forecast

Advertisements
Track Severe Weather on mobile